sensor_id;sensor_type;location;lat;lon;timestamp;P1;durP1;ratioP1;P2;durP2;ratioP2
63959;SDS011;50136;51.374;0.096;2022-12-18T00:00:52;39.05;;;19.95;;
63959;SDS011;50136;51.374;0.096;2022-12-18T00:10:55;42.80;;;20.73;;
63959;SDS011;50136;51.374;0.096;2022-12-18T00:21:08;45.05;;;19.40;;
63959;SDS011;50136;51.374;0.096;2022-12-18T00:31:14;43.70;;;19.70;;
63959;SDS011;50136;51.374;0.096;2022-12-18T00:41:17;45.45;;;20.52;;
63959;SDS011;50136;51.374;0.096;2022-12-18T00:51:21;46.78;;;23.15;;
63959;SDS011;50136;51.374;0.096;2022-12-18T01:01:23;46.20;;;22.50;;
63959;SDS011;50136;51.374;0.096;2022-12-18T01:11:26;43.40;;;20.15;;
63959;SDS011;50136;51.374;0.096;2022-12-18T01:21:28;38.75;;;16.60;;
63959;SDS011;50136;51.374;0.096;2022-12-18T01:31:32;35.97;;;16.77;;
63959;SDS011;50136;51.374;0.096;2022-12-18T01:41:35;44.28;;;18.08;;
63959;SDS011;50136;51.374;0.096;2022-12-18T01:51:39;35.88;;;15.77;;
63959;SDS011;50136;51.374;0.096;2022-12-18T02:01:41;33.67;;;15.57;;
63959;SDS011;50136;51.374;0.096;2022-12-18T02:11:45;37.63;;;15.70;;
63959;SDS011;50136;51.374;0.096;2022-12-18T02:22:07;37.20;;;16.67;;
63959;SDS011;50136;51.374;0.096;2022-12-18T02:32:21;32.30;;;13.93;;
63959;SDS011;50136;51.374;0.096;2022-12-18T02:42:26;32.08;;;14.13;;
63959;SDS011;50136;51.374;0.096;2022-12-18T02:52:34;33.30;;;15.23;;
63959;SDS011;50136;51.374;0.096;2022-12-18T03:02:44;37.75;;;15.35;;
63959;SDS011;50136;51.374;0.096;2022-12-18T03:12:52;31.17;;;14.90;;
63959;SDS011;50136;51.374;0.096;2022-12-18T03:23:01;32.30;;;15.73;;
63959;SDS011;50136;51.374;0.096;2022-12-18T03:33:10;36.50;;;15.35;;
63959;SDS011;50136;51.374;0.096;2022-12-18T03:43:17;29.40;;;16.02;;
63959;SDS011;50136;51.374;0.096;2022-12-18T03:53:28;38.58;;;13.43;;
63959;SDS011;50136;51.374;0.096;2022-12-18T04:03:35;31.35;;;14.70;;
63959;SDS011;50136;51.374;0.096;2022-12-18T04:13:41;29.15;;;14.68;;
63959;SDS011;50136;51.374;0.096;2022-12-18T04:23:44;36.22;;;13.30;;
63959;SDS011;50136;51.374;0.096;2022-12-18T04:33:47;26.80;;;13.02;;
63959;SDS011;50136;51.374;0.096;2022-12-18T04:43:49;31.23;;;14.68;;
63959;SDS011;50136;51.374;0.096;2022-12-18T04:53:52;34.40;;;15.38;;
63959;SDS011;50136;51.374;0.096;2022-12-18T05:03:55;33.03;;;16.00;;
63959;SDS011;50136;51.374;0.096;2022-12-18T05:13:58;41.60;;;15.68;;
63959;SDS011;50136;51.374;0.096;2022-12-18T05:24:00;28.98;;;15.60;;
63959;SDS011;50136;51.374;0.096;2022-12-18T05:34:03;30.33;;;17.10;;
63959;SDS011;50136;51.374;0.096;2022-12-18T05:44:05;39.70;;;17.40;;
63959;SDS011;50136;51.374;0.096;2022-12-18T05:54:09;36.85;;;17.85;;
63959;SDS011;50136;51.374;0.096;2022-12-18T06:04:11;35.90;;;16.33;;
63959;SDS011;50136;51.374;0.096;2022-12-18T06:14:14;37.85;;;16.38;;
63959;SDS011;50136;51.374;0.096;2022-12-18T06:24:16;33.67;;;16.92;;
63959;SDS011;50136;51.374;0.096;2022-12-18T06:34:20;30.83;;;15.60;;
63959;SDS011;50136;51.374;0.096;2022-12-18T06:44:22;35.10;;;16.38;;
63959;SDS011;50136;51.374;0.096;2022-12-18T06:54:25;32.20;;;15.15;;
63959;SDS011;50136;51.374;0.096;2022-12-18T07:04:28;41.35;;;15.02;;
63959;SDS011;50136;51.374;0.096;2022-12-18T07:14:31;29.35;;;15.68;;
63959;SDS011;50136;51.374;0.096;2022-12-18T07:24:33;33.95;;;16.88;;
63959;SDS011;50136;51.374;0.096;2022-12-18T07:34:37;25.98;;;12.55;;
63959;SDS011;50136;51.374;0.096;2022-12-18T07:44:39;33.50;;;14.90;;
63959;SDS011;50136;51.374;0.096;2022-12-18T07:54:43;33.50;;;17.65;;
63959;SDS011;50136;51.374;0.096;2022-12-18T08:04:45;35.70;;;16.65;;
63959;SDS011;50136;51.374;0.096;2022-12-18T08:14:48;29.95;;;16.75;;
63959;SDS011;50136;51.374;0.096;2022-12-18T08:24:50;35.45;;;15.48;;
63959;SDS011;50136;51.374;0.096;2022-12-18T08:34:53;31.95;;;16.17;;
63959;SDS011;50136;51.374;0.096;2022-12-18T08:44:55;34.50;;;16.88;;
63959;SDS011;50136;51.374;0.096;2022-12-18T08:54:58;29.77;;;15.43;;
63959;SDS011;50136;51.374;0.096;2022-12-18T09:05:00;30.05;;;15.18;;
63959;SDS011;50136;51.374;0.096;2022-12-18T09:15:04;39.92;;;17.77;;
63959;SDS011;50136;51.374;0.096;2022-12-18T09:25:07;38.40;;;16.88;;
63959;SDS011;50136;51.374;0.096;2022-12-18T09:35:10;38.67;;;18.35;;
63959;SDS011;50136;51.374;0.096;2022-12-18T09:45:12;37.38;;;18.40;;
63959;SDS011;50136;51.374;0.096;2022-12-18T09:55:19;37.83;;;16.80;;
63959;SDS011;50136;51.374;0.096;2022-12-18T10:05:27;35.28;;;17.27;;
63959;SDS011;50136;51.374;0.096;2022-12-18T10:15:38;29.10;;;15.17;;
63959;SDS011;50136;51.374;0.096;2022-12-18T10:25:48;39.35;;;17.60;;
63959;SDS011;50136;51.374;0.096;2022-12-18T10:35:56;28.80;;;16.63;;
63959;SDS011;50136;51.374;0.096;2022-12-18T10:46:00;30.08;;;16.75;;
63959;SDS011;50136;51.374;0.096;2022-12-18T10:56:08;30.38;;;15.45;;
63959;SDS011;50136;51.374;0.096;2022-12-18T11:06:11;29.02;;;16.45;;
63959;SDS011;50136;51.374;0.096;2022-12-18T11:16:19;29.70;;;14.13;;
63959;SDS011;50136;51.374;0.096;2022-12-18T11:26:21;31.55;;;14.68;;
63959;SDS011;50136;51.374;0.096;2022-12-18T11:36:38;31.80;;;16.80;;
63959;SDS011;50136;51.374;0.096;2022-12-18T11:46:43;38.72;;;16.73;;
63959;SDS011;50136;51.374;0.096;2022-12-18T11:56:51;31.00;;;16.52;;
63959;SDS011;50136;51.374;0.096;2022-12-18T12:06:59;34.63;;;16.45;;
63959;SDS011;50136;51.374;0.096;2022-12-18T12:17:27;38.55;;;17.05;;
63959;SDS011;50136;51.374;0.096;2022-12-18T12:27:40;33.72;;;16.58;;
63959;SDS011;50136;51.374;0.096;2022-12-18T12:37:53;30.48;;;16.45;;
63959;SDS011;50136;51.374;0.096;2022-12-18T12:48:05;32.05;;;13.02;;
63959;SDS011;50136;51.374;0.096;2022-12-18T12:58:17;35.10;;;15.87;;
63959;SDS011;50136;51.374;0.096;2022-12-18T13:19:44;28.15;;;17.33;;
63959;SDS011;50136;51.374;0.096;2022-12-18T13:29:46;20.17;;;12.25;;
63959;SDS011;50136;51.374;0.096;2022-12-18T13:39:50;27.63;;;15.55;;
63959;SDS011;50136;51.374;0.096;2022-12-18T13:49:52;22.20;;;11.70;;
63959;SDS011;50136;51.374;0.096;2022-12-18T13:59:55;23.15;;;13.27;;
63959;SDS011;50136;51.374;0.096;2022-12-18T14:09:58;25.23;;;12.95;;
63959;SDS011;50136;51.374;0.096;2022-12-18T14:30:23;22.25;;;11.48;;
63959;SDS011;50136;51.374;0.096;2022-12-18T14:40:28;18.65;;;11.43;;
63959;SDS011;50136;51.374;0.096;2022-12-18T14:50:30;19.85;;;10.70;;
63959;SDS011;50136;51.374;0.096;2022-12-18T15:00:33;17.95;;;11.05;;
63959;SDS011;50136;51.374;0.096;2022-12-18T15:10:46;19.47;;;12.03;;
63959;SDS011;50136;51.374;0.096;2022-12-18T15:20:51;17.10;;;10.73;;
63959;SDS011;50136;51.374;0.096;2022-12-18T15:30:58;17.77;;;12.27;;
63959;SDS011;50136;51.374;0.096;2022-12-18T15:41:11;19.55;;;11.07;;
63959;SDS011;50136;51.374;0.096;2022-12-18T15:51:15;15.32;;;9.30;;
63959;SDS011;50136;51.374;0.096;2022-12-18T16:01:20;16.85;;;9.45;;
63959;SDS011;50136;51.374;0.096;2022-12-18T16:11:25;12.75;;;8.32;;
63959;SDS011;50136;51.374;0.096;2022-12-18T16:21:30;10.98;;;7.45;;
63959;SDS011;50136;51.374;0.096;2022-12-18T16:31:34;12.63;;;6.55;;
63959;SDS011;50136;51.374;0.096;2022-12-18T16:41:38;10.05;;;6.80;;
63959;SDS011;50136;51.374;0.096;2022-12-18T16:51:43;6.75;;;4.45;;
63959;SDS011;50136;51.374;0.096;2022-12-18T17:01:50;10.95;;;6.72;;
63959;SDS011;50136;51.374;0.096;2022-12-18T17:11:53;7.22;;;4.97;;
63959;SDS011;50136;51.374;0.096;2022-12-18T17:21:56;10.10;;;5.10;;
63959;SDS011;50136;51.374;0.096;2022-12-18T17:31:58;10.00;;;6.22;;
63959;SDS011;50136;51.374;0.096;2022-12-18T17:42:02;10.18;;;4.90;;
63959;SDS011;50136;51.374;0.096;2022-12-18T17:52:05;5.28;;;3.90;;
63959;SDS011;50136;51.374;0.096;2022-12-18T18:02:12;7.68;;;5.10;;
63959;SDS011;50136;51.374;0.096;2022-12-18T18:12:14;8.98;;;4.20;;
63959;SDS011;50136;51.374;0.096;2022-12-18T18:22:17;6.28;;;3.45;;
63959;SDS011;50136;51.374;0.096;2022-12-18T18:32:20;10.65;;;4.78;;
63959;SDS011;50136;51.374;0.096;2022-12-18T18:42:24;6.10;;;4.05;;
63959;SDS011;50136;51.374;0.096;2022-12-18T18:52:25;5.63;;;3.47;;
63959;SDS011;50136;51.374;0.096;2022-12-18T19:02:29;5.75;;;3.63;;
63959;SDS011;50136;51.374;0.096;2022-12-18T19:12:32;7.93;;;4.85;;
63959;SDS011;50136;51.374;0.096;2022-12-18T19:22:35;5.13;;;3.65;;
63959;SDS011;50136;51.374;0.096;2022-12-18T19:32:37;7.78;;;4.68;;
63959;SDS011;50136;51.374;0.096;2022-12-18T19:42:40;9.30;;;5.15;;
63959;SDS011;50136;51.374;0.096;2022-12-18T19:52:42;7.45;;;4.65;;
63959;SDS011;50136;51.374;0.096;2022-12-18T20:02:46;5.30;;;4.10;;
63959;SDS011;50136;51.374;0.096;2022-12-18T20:12:48;7.15;;;4.68;;
63959;SDS011;50136;51.374;0.096;2022-12-18T20:33:35;6.65;;;3.25;;
63959;SDS011;50136;51.374;0.096;2022-12-18T20:43:38;6.18;;;3.47;;
63959;SDS011;50136;51.374;0.096;2022-12-18T20:53:41;3.20;;;2.30;;
63959;SDS011;50136;51.374;0.096;2022-12-18T21:03:45;9.15;;;3.42;;
63959;SDS011;50136;51.374;0.096;2022-12-18T21:13:47;3.17;;;2.10;;
63959;SDS011;50136;51.374;0.096;2022-12-18T21:23:51;6.80;;;2.78;;
63959;SDS011;50136;51.374;0.096;2022-12-18T21:33:52;2.60;;;2.00;;
63959;SDS011;50136;51.374;0.096;2022-12-18T21:54:47;2.33;;;1.70;;
63959;SDS011;50136;51.374;0.096;2022-12-18T22:04:51;3.05;;;1.80;;
63959;SDS011;50136;51.374;0.096;2022-12-18T22:14:53;2.45;;;1.50;;
63959;SDS011;50136;51.374;0.096;2022-12-18T22:24:56;3.10;;;1.95;;
63959;SDS011;50136;51.374;0.096;2022-12-18T22:34:59;1.52;;;1.25;;
63959;SDS011;50136;51.374;0.096;2022-12-18T22:45:12;2.22;;;1.20;;
63959;SDS011;50136;51.374;0.096;2022-12-18T22:55:14;1.63;;;1.00;;
63959;SDS011;50136;51.374;0.096;2022-12-18T23:05:17;2.20;;;1.55;;
63959;SDS011;50136;51.374;0.096;2022-12-18T23:15:19;1.63;;;1.15;;
63959;SDS011;50136;51.374;0.096;2022-12-18T23:25:29;4.13;;;2.13;;
63959;SDS011;50136;51.374;0.096;2022-12-18T23:35:31;10.25;;;1.98;;
63959;SDS011;50136;51.374;0.096;2022-12-18T23:45:36;41.15;;;4.68;;
63959;SDS011;50136;51.374;0.096;2022-12-18T23:55:39;5.50;;;1.83;;
